地図

経路データ

SID SEASON NUMBER BASIN SUBBASIN NAME ISO_TIME NATURE LAT LON WMO_WIND WMO_PRES WMO_AGENCY TRACK_TYPE DIST2LAND LANDFALL IFLAG USA_AGENCY USA_ATCF_ID USA_LAT USA_LON USA_RECORD USA_STATUS USA_WIND USA_PRES USA_SSHS USA_R34_NE USA_R34_SE USA_R34_SW USA_R34_NW USA_R50_NE USA_R50_SE USA_R50_SW USA_R50_NW USA_R64_NE USA_R64_SE USA_R64_SW USA_R64_NW USA_POCI USA_ROCI USA_RMW USA_EYE TOKYO_LAT TOKYO_LON TOKYO_GRADE TOKYO_WIND TOKYO_PRES TOKYO_R50_DIR TOKYO_R50_LONG TOKYO_R50_SHORT TOKYO_R30_DIR TOKYO_R30_LONG TOKYO_R30_SHORT TOKYO_LAND CMA_LAT CMA_LON CMA_CAT CMA_WIND CMA_PRES HKO_LAT HKO_LON HKO_CAT HKO_WIND HKO_PRES NEWDELHI_LAT NEWDELHI_LON NEWDELHI_GRADE NEWDELHI_WIND NEWDELHI_PRES NEWDELHI_CI NEWDELHI_DP NEWDELHI_POCI REUNION_LAT REUNION_LON REUNION_TYPE REUNION_WIND REUNION_PRES REUNION_TNUM REUNION_CI REUNION_RMW REUNION_R34_NE REUNION_R34_SE REUNION_R34_SW REUNION_R34_NW REUNION_R50_NE REUNION_R50_SE REUNION_R50_SW REUNION_R50_NW REUNION_R64_NE REUNION_R64_SE REUNION_R64_SW REUNION_R64_NW BOM_LAT BOM_LON BOM_TYPE BOM_WIND BOM_PRES BOM_TNUM BOM_CI BOM_RMW BOM_R34_NE BOM_R34_SE BOM_R34_SW BOM_R34_NW BOM_R50_NE BOM_R50_SE BOM_R50_SW BOM_R50_NW BOM_R64_NE BOM_R64_SE BOM_R64_SW BOM_R64_NW BOM_ROCI BOM_POCI BOM_EYE BOM_POS_METHOD BOM_PRES_METHOD NADI_LAT NADI_LON NADI_CAT NADI_WIND NADI_PRES WELLINGTON_LAT WELLINGTON_LON WELLINGTON_WIND WELLINGTON_PRES DS824_LAT DS824_LON DS824_STAGE DS824_WIND DS824_PRES TD9636_LAT TD9636_LON TD9636_STAGE TD9636_WIND TD9636_PRES TD9635_LAT TD9635_LON TD9635_WIND TD9635_PRES TD9635_ROCI NEUMANN_LAT NEUMANN_LON NEUMANN_CLASS NEUMANN_WIND NEUMANN_PRES MLC_LAT MLC_LON MLC_CLASS MLC_WIND MLC_PRES USA_GUST BOM_GUST BOM_GUST_PER REUNION_GUST REUNION_GUST_PER USA_SEAHGT USA_SEARAD_NE USA_SEARAD_SE USA_SEARAD_SW USA_SEARAD_NW STORM_SPEED STORM_DIR
1988100S15171 1988 19 SP MM DOVI 1988-04-08 12:00:00 TS -14.9250 170.825 30 997 wellington main 357 318 O_______O_O_O_ jtwc_sh SH191988 -14.9000 170.800 25 -1 -15.0000 170.900 30 997 -14.9000 170.800 1 25 -14.9000 170.800 TC 25 8 233
1988100S15171 1988 19 SP MM DOVI 1988-04-08 15:00:00 TS -15.1515 170.511 main 314 275 P_______P_P_P_ SH191988 -15.1451 170.490 25 -1 -15.1637 170.584 30 997 -15.1521 170.479 1 25 -15.1451 170.490 TC 25 8 232
1988100S15171 1988 19 SP MM DOVI 1988-04-08 18:00:00 TS -15.3887 170.218 main 275 247 O_______P_P_O_ jtwc_sh SH191988 -15.4000 170.200 25 -1 -15.3417 170.285 30 997 -15.4131 170.186 1 25 -15.4000 170.200 TC 25 7 226
1988100S15171 1988 19 SP MM DOVI 1988-04-08 21:00:00 TS -15.6491 169.970 main 247 218 P_______P_P_P_ SH191988 -15.6775 169.955 25 -1 -15.5489 170.018 30 997 -15.6925 169.950 1 25 -15.6775 169.955 TC 25 7 216
1988100S15171 1988 19 SP MM DOVI 1988-04-09 00:00:00 TS -15.9500 169.800 30 997 wellington main 218 202 O_______O_O_O_ jtwc_sh SH191988 -16.0000 169.800 25 -1 -15.8000 169.800 30 997 -16.0000 169.800 1 25 -16.0000 169.800 TC 25 7 199
1988100S15171 1988 19 SP MM DOVI 1988-04-09 03:00:00 TS -16.3162 169.729 main 202 202 P_______P_P_P_ SH191988 -16.4075 169.755 27 -1 -16.1108 169.650 30 997 -16.3389 169.755 1 28 -16.4075 169.755 TC 27 8 184
1988100S15171 1988 19 SP MM DOVI 1988-04-09 06:00:00 TS -16.6968 169.749 30 997 wellington main 202 202 O_______O_P_O_ jtwc_sh SH191988 -16.8000 169.800 30 -1 -16.5000 169.600 30 997 -16.6873 169.794 1 32 -16.8000 169.800 TC 30 7 173
1988100S15171 1988 19 SP MM DOVI 1988-04-09 09:00:00 TS -17.0462 169.832 main 217 217 P_______P_P_P_ SH191988 -17.0800 169.885 35 0 -17.0075 169.670 32 996 -17.0171 169.886 1 36 -17.0800 169.885 TC 35 7 163
1988100S15171 1988 19 SP MM DOVI 1988-04-09 12:00:00 TS -17.3500 169.950 35 995 wellington main 246 246 O_______O_O_O_ jtwc_sh SH191988 -17.3000 170.000 40 0 -17.5000 169.800 35 995 -17.3000 170.000 2 40 -17.3000 170.000 TC 40 6 160
1988100S15171 1988 19 SP MM DOVI 1988-04-09 15:00:00 TS -17.6026 170.042 main 259 259 P_______P_P_P_ SH191988 -17.5225 170.100 42 0 -17.8449 169.878 35 995 -17.5206 170.090 2 42 -17.5225 170.100 TC 42 5 157
1988100S15171 1988 19 SP MM DOVI 1988-04-09 18:00:00 TS -17.7975 170.148 35 995 wellington main 278 278 O_______O_P_O_ jtwc_sh SH191988 -17.7000 170.200 45 0 -18.1000 170.000 35 995 -17.6900 170.192 2 45 -17.7000 170.200 TC 45 4 145
1988100S15171 1988 19 SP MM DOVI 1988-04-09 21:00:00 TS -17.9474 170.291 main 302 302 P_______P_P_P_ SH191988 -17.8150 170.308 47 0 -18.3451 170.250 37 992 -17.8144 170.299 2 47 -17.8150 170.308 TC 47 4 134
1988100S15171 1988 19 SP MM DOVI 1988-04-10 00:00:00 TS -18.0500 170.425 40 990 wellington main 317 323 O_______O_O_O_ jtwc_sh SH191988 -17.9000 170.400 50 0 -18.5000 170.500 40 990 -17.9000 170.400 2 50 -17.9000 170.400 TC 50 3 133
1988100S15171 1988 19 SP MM DOVI 1988-04-10 03:00:00 TS -18.1418 170.506 main 332 332 P_______P_P_P_ SH191988 -18.0225 170.450 50 0 -18.5449 170.630 40 990 -17.9772 170.494 2 51 -18.0225 170.450 TC 50 2 133
1988100S15171 1988 19 SP MM DOVI 1988-04-10 06:00:00 TS -18.1794 170.570 40 990 wellington main 346 341 O_______O_P_O_ jtwc_sh SH191988 -18.1000 170.500 50 0 -18.5000 170.700 40 990 -18.0175 170.580 2 52 -18.1000 170.500 TC 50 1 91
1988100S15171 1988 19 SP MM DOVI 1988-04-10 09:00:00 TS -18.1441 170.654 main 350 350 P_______P_P_P_ SH191988 -18.0725 170.600 52 0 -18.4075 170.765 40 990 -18.0241 170.651 2 53 -18.0725 170.600 TC 52 2 55
1988100S15171 1988 19 SP MM DOVI 1988-04-10 12:00:00 TS -18.0750 170.725 40 990 wellington main 350 350 O_______O_O_O_ jtwc_sh SH191988 -18.0000 170.700 55 0 -18.3000 170.800 40 990 -18.0000 170.700 2 55 -18.0000 170.700 TC 55 2 43
1988100S15171 1988 19 SP MM DOVI 1988-04-10 15:00:00 TS -18.0256 170.772 main 354 354 P_______P_P_P_ SH191988 -17.9575 170.773 55 0 -18.2500 170.815 40 990 -17.9375 170.730 2 55 -17.9575 170.773 TC 55 1 26
1988100S15171 1988 19 SP MM DOVI 1988-04-10 18:00:00 TS -17.9625 170.784 40 990 wellington main 354 350 O_______O_P_O_ jtwc_sh SH191988 -17.9000 170.800 55 0 -18.2000 170.800 40 990 -17.8500 170.738 2 55 -17.9000 170.800 TC 55 2 353
1988100S15171 1988 19 SP MM DOVI 1988-04-10 21:00:00 TS -17.8637 170.753 main 350 336 P_______P_P_P_ SH191988 -17.7925 170.765 55 0 -18.1075 170.757 40 990 -17.7625 170.727 2 55 -17.7925 170.765 TC 55 2 338
1988100S15171 1988 19 SP MM DOVI 1988-04-11 00:00:00 TS -17.7750 170.700 40 990 wellington main 336 331 O_______O_O_O_ jtwc_sh SH191988 -17.7000 170.700 55 0 -18.0000 170.700 40 990 -17.7000 170.700 2 55 -17.7000 170.700 TC 55 2 324
1988100S15171 1988 19 SP MM DOVI 1988-04-11 03:00:00 TS -17.7322 170.648 main 322 322 P_______P_P_P_ SH191988 -17.6775 170.650 57 0 -17.8925 170.650 42 988 -17.6811 170.642 2 56 -17.6775 170.650 TC 57 1 296
1988100S15171 1988 19 SP MM DOVI 1988-04-11 06:00:00 TS -17.7230 170.593 45 987 wellington main 322 312 O_______O_P_O_ jtwc_sh SH191988 -17.7000 170.600 60 0 -17.8000 170.600 45 987 -17.6921 170.573 2 57 -17.7000 170.600 TC 60 1 268
1988100S15171 1988 19 SP MM DOVI 1988-04-11 09:00:00 TS -17.7361 170.534 main 312 312 P_______P_P_P_ SH191988 -17.7350 170.535 60 0 -17.7425 170.550 47 986 -17.7320 170.518 2 58 -17.7350 170.535 TC 60 1 240
1988100S15171 1988 19 SP MM DOVI 1988-04-11 12:00:00 TS -17.7750 170.500 50 985 wellington main 316 316 O_______O_O_O_ jtwc_sh SH191988 -17.8000 170.500 60 0 -17.7000 170.500 50 985 -17.8000 170.500 2 60 -17.8000 170.500 TC 60 1 194
1988100S15171 1988 19 SP MM DOVI 1988-04-11 15:00:00 TS -17.8377 170.515 main 316 316 P_______P_P_P_ SH191988 -17.9000 170.535 62 0 -17.6500 170.450 52 982 -17.9008 170.540 2 62 -17.9000 170.535 TC 62 1 162
1988100S15171 1988 19 SP MM DOVI 1988-04-11 18:00:00 TS -17.9000 170.550 55 980 wellington main 331 331 O_______O_O_O_ jtwc_sh SH191988 -18.0000 170.600 65 1 -17.6000 170.400 55 980 -18.0000 170.600 3 65 -18.0000 170.600 TC 65 1 146
1988100S15171 1988 19 SP MM DOVI 1988-04-11 21:00:00 TS -17.9177 170.572 main 331 331 P_______P_P_P_ SH191988 -18.0575 170.650 65 1 -17.5050 170.342 55 980 -18.0508 170.645 3 65 -18.0575 170.650 TC 65 1 137
1988100S15171 1988 19 SP MM DOVI 1988-04-12 00:00:00 TS -17.9500 170.600 55 980 wellington main 331 331 O_______O_O_O_ jtwc_sh SH191988 -18.1000 170.700 65 1 -17.5000 170.300 55 980 -18.1000 170.700 4 65 -18.1000 170.700 TC 65 1 155
1988100S15171 1988 19 SP MM DOVI 1988-04-12 03:00:00 TS -18.0365 170.631 main 336 336 P_______P_P_P_ SH191988 -18.1275 170.735 67 1 -17.7125 170.278 57 977 -18.1786 170.777 4 65 -18.1275 170.735 TC 67 2 159
1988100S15171 1988 19 SP MM DOVI 1988-04-12 06:00:00 TS -18.1713 170.693 60 975 wellington main 356 356 O_______O_P_O_ jtwc_sh SH191988 -18.2000 170.800 70 1 -18.0000 170.300 60 975 -18.2852 170.873 4 65 -18.2000 170.800 TC 70 3 151
1988100S15171 1988 19 SP MM DOVI 1988-04-12 09:00:00 TS -18.3392 170.806 main 370 370 P_______P_P_P_ SH191988 -18.3700 170.935 67 1 -18.1925 170.370 60 975 -18.4243 170.982 4 65 -18.3700 170.935 TC 67 5 147
1988100S15171 1988 19 SP MM DOVI 1988-04-12 12:00:00 TS -18.5500 170.950 60 975 wellington main 400 400 O_______O_O_O_ jtwc_sh SH191988 -18.6000 171.100 65 1 -18.4000 170.500 60 975 -18.6000 171.100 4 65 -18.6000 171.100 TC 65 5 148
1988100S15171 1988 19 SP MM DOVI 1988-04-12 15:00:00 TS -18.8008 171.109 main 427 427 P_______P_P_P_ SH191988 -18.8425 171.257 65 1 -18.7001 170.700 60 975 -18.8181 171.222 4 65 -18.8425 171.257 TC 65 6 150
1988100S15171 1988 19 SP MM DOVI 1988-04-12 18:00:00 TS -19.0675 171.262 60 975 wellington main 464 464 O_______O_P_O_ jtwc_sh SH191988 -19.1000 171.400 65 1 -19.0000 170.900 60 975 -19.0700 171.350 4 65 -19.1000 171.400 TC 65 6 154
1988100S15171 1988 19 SP MM DOVI 1988-04-12 21:00:00 TS -19.3148 171.377 main 486 486 P_______P_P_P_ SH191988 -19.3575 171.508 65 1 -19.2075 171.015 60 975 -19.3369 171.478 4 65 -19.3575 171.508 TC 65 5 157
1988100S15171 1988 19 SP MM DOVI 1988-04-13 00:00:00 TS -19.5500 171.475 60 975 wellington main 508 508 O_______O_O_O_ jtwc_sh SH191988 -19.6000 171.600 65 1 -19.4000 171.100 60 975 -19.6000 171.600 4 65 -19.6000 171.600 TC 65 5 158
1988100S15171 1988 19 SP MM DOVI 1988-04-13 03:00:00 TS -19.7695 171.575 main 537 537 P_______P_P_P_ SH191988 -19.8000 171.700 62 0 -19.6500 171.193 60 975 -19.8281 171.707 4 63 -19.8000 171.700 TC 62 5 157
1988100S15171 1988 19 SP MM DOVI 1988-04-13 06:00:00 TS -19.9875 171.677 60 975 wellington main 545 540 O_______O_P_O_ jtwc_sh SH191988 -20.0000 171.800 60 0 -19.9000 171.300 60 975 -20.0499 171.808 4 62 -20.0000 171.800 TC 60 5 156
1988100S15171 1988 19 SP MM DOVI 1988-04-13 09:00:00 TS -20.2123 171.789 main 545 540 P_______P_P_P_ SH191988 -20.2425 171.900 60 0 -20.0925 171.450 60 975 -20.2718 171.904 4 61 -20.2425 171.900 TC 60 5 156
1988100S15171 1988 19 SP MM DOVI 1988-04-13 12:00:00 TS -20.4500 171.900 60 975 wellington main 545 537 O_______O_O_O_ jtwc_sh SH191988 -20.5000 172.000 60 0 -20.3000 171.600 60 975 -20.5000 172.000 2 60 -20.5000 172.000 TC 60 5 158
1988100S15171 1988 19 SP MM DOVI 1988-04-13 15:00:00 TS -20.7068 172.002 main 543 540 P_______P_P_P_ SH191988 -20.7500 172.100 60 0 -20.5925 171.708 60 975 -20.7347 172.100 2 60 -20.7500 172.100 TC 60 6 160
1988100S15171 1988 19 SP MM DOVI 1988-04-13 18:00:00 TS -20.9694 172.100 60 975 wellington main 543 541 O_______O_P_O_ jtwc_sh SH191988 -21.0000 172.200 60 0 -20.9000 171.800 60 975 -20.9775 172.200 2 60 -21.0000 172.200 TC 60 6 160
1988100S15171 1988 19 SP MM DOVI 1988-04-13 21:00:00 TS -21.2223 172.200 main 548 546 P_______P_P_P_ SH191988 -21.2500 172.300 60 0 -21.1575 171.900 60 975 -21.2315 172.300 2 60 -21.2500 172.300 TC 60 5 160
1988100S15171 1988 19 SP MM DOVI 1988-04-14 00:00:00 TS -21.4750 172.300 60 975 wellington main 552 550 O_______O_O_O_ jtwc_sh SH191988 -21.5000 172.400 60 0 -21.4000 172.000 60 975 -21.5000 172.400 2 60 -21.5000 172.400 TC 60 5 160
1988100S15171 1988 19 SP MM DOVI 1988-04-14 03:00:00 TS -21.7126 172.390 main 559 557 P_______P_P_P_ SH191988 -21.7350 172.500 60 0 -21.6274 172.070 60 975 -21.7531 172.488 2 60 -21.7350 172.500 TC 60 5 160
1988100S15171 1988 19 SP MM DOVI 1988-04-14 06:00:00 TS -21.9812 172.495 60 975 wellington main 566 566 O_______O_P_O_ jtwc_sh SH191988 -22.0000 172.600 60 0 -21.9000 172.200 60 975 -22.0249 172.578 2 60 -22.0000 172.600 TC 60 7 159
1988100S15171 1988 19 SP MM DOVI 1988-04-14 09:00:00 TS -22.3167 172.639 main 575 575 P_______P_P_P_ SH191988 -22.3200 172.693 60 0 -22.2927 172.492 60 975 -22.3343 172.679 2 60 -22.3200 172.693 TC 60 8 159
1988100S15171 1988 19 SP MM DOVI 1988-04-14 12:00:00 TS -22.7000 172.800 60 975 wellington main 597 597 O_______O_O_O_ jtwc_sh SH191988 -22.7000 172.800 60 0 -22.7000 172.800 60 975 -22.7000 172.800 2 60 -22.7000 172.800 TC 60 8 160
1988100S15171 1988 19 SP MM DOVI 1988-04-14 15:00:00 TS -23.0917 172.946 main 611 611 P_______P_P_P_ SH191988 -23.1200 172.935 57 0 -22.9923 172.958 57 977 -23.1345 172.957 2 57 -23.1200 172.935 TC 57 9 161
1988100S15171 1988 19 SP MM DOVI 1988-04-14 18:00:00 TS -23.5313 173.109 55 980 wellington main 638 638 O_______O_P_O_ jtwc_sh SH191988 -23.6000 173.100 55 0 -23.3000 173.100 55 980 -23.6252 173.135 2 55 -23.6000 173.100 TC 55 10 160
1988100S15171 1988 19 SP MM DOVI 1988-04-14 21:00:00 TS -24.0227 173.310 main 671 671 P_______P_P_P_ SH191988 -24.1350 173.300 52 0 -23.6675 173.321 55 980 -24.1533 173.320 2 52 -24.1350 173.300 TC 52 11 160
1988100S15171 1988 19 SP MM DOVI 1988-04-15 00:00:00 TS -24.5750 173.525 55 980 wellington main 710 710 O_______O_O_O_ jtwc_sh SH191988 -24.7000 173.500 50 0 -24.2000 173.600 55 980 -24.7000 173.500 2 50 -24.7000 173.500 TC 50 12 163
1988100S15171 1988 19 SP MM DOVI 1988-04-15 03:00:00 TS -25.2019 173.712 main 754 754 P_______P_P_P_ SH191988 -25.2500 173.658 50 0 -24.9777 173.934 55 980 -25.2760 173.649 2 50 -25.2500 173.658 TC 50 13 166
1988100S15171 1988 19 SP MM DOVI 1988-04-15 06:00:00 TS -25.8314 173.869 55 980 wellington main 801 801 O_______O_P_O_ jtwc_sh SH191988 -25.8000 173.800 50 0 -25.9000 174.300 55 980 -25.8597 173.793 2 50 -25.8000 173.800 TC 50 13 169
1988100S15171 1988 19 SP MM DOVI 1988-04-15 09:00:00 TS -26.4524 173.992 main 849 849 P_________P_P_ SH191988 -26.4249 173.942 50 0 -26.4136 173.940 2 50 -26.4249 173.942 TC 50 11 169
1988100S15171 1988 19 SP MM DOVI 1988-04-15 12:00:00 TS -26.9000 174.100 55 980 wellington main 854 843 O_________O_O_ jtwc_sh SH191988 -26.9000 174.100 50 0 -26.9000 174.100 2 50 -26.9000 174.100 TC 50 7 156
1988100S15171 1988 19 SP MM DOVI 1988-04-15 15:00:00 TS -27.0437 174.291 main 845 826 P_________P_P_ SH191988 -26.9500 174.293 47 0 -27.2312 174.287 2 48 -26.9500 174.293 TC 47 4 127
1988100S15171 1988 19 SP MM DOVI 1988-04-15 18:00:00 TS -27.1667 174.496 55 980 wellington main 826 797 O_________P_O_ jtwc_sh SH191988 -27.0000 174.500 45 0 -27.5000 174.487 2 47 -27.0000 174.500 TC 45 6 146
1988100S15171 1988 19 SP MM DOVI 1988-04-15 21:00:00 TS -27.5729 174.698 main 786 736 P_________P_P_ SH191988 -27.4750 174.700 45 0 -27.7687 174.693 2 46 -27.4750 174.700 TC 45 10 159
1988100S15171 1988 19 SP MM DOVI 1988-04-16 00:00:00 TS -28.1000 174.900 55 980 wellington main 736 687 O_________O_O_ jtwc_sh SH191988 -28.1000 174.900 45 0 -28.1000 174.900 2 45 -28.1000 174.900 TC 45 11 162
1988100S15171 1988 19 SP MM DOVI 1988-04-16 03:00:00 TS -28.6272 175.097 main 687 637 P_________P_P_ SH191988 -28.6500 175.100 42 0 -28.5817 175.089 2 42 -28.6500 175.100 TC 42 11 162
1988100S15171 1988 19 SP MM DOVI 1988-04-16 06:00:00 TS -29.1772 175.293 50 985 wellington main 629 584 O_________P_O_ jtwc_sh SH191988 -29.2000 175.300 40 0 -29.1317 175.280 2 40 -29.2000 175.300 TC 40 12 163
1988100S15171 1988 19 SP MM DOVI 1988-04-16 09:00:00 TS -29.7386 175.489 main 584 532 P_________P_P_ SH191988 -29.7499 175.493 37 0 -29.7158 175.481 2 37 -29.7499 175.493 TC 37 12 163
1988100S15171 1988 19 SP MM DOVI 1988-04-16 12:00:00 TS -30.3000 175.700 50 985 wellington main 532 493 O_________O_O_ jtwc_sh SH191988 -30.3000 175.700 35 0 -30.3000 175.700 2 35 -30.3000 175.700 TC 35 12 161
1988100S15171 1988 19 SP MM DOVI 1988-04-16 15:00:00 TS -30.8530 175.940 main 484 456 P_________P_P_ SH191988 -30.8501 175.939 32 -1 -30.8586 175.943 2 32 -30.8501 175.939 TC 32 12 159
1988100S15171 1988 19 SP MM DOVI 1988-04-16 18:00:00 TS -31.4000 176.200 50 985 wellington main 456 O_________O_O_ jtwc_sh SH191988 -31.4000 176.200 30 -1 -31.4000 176.200 1 30 -31.4000 176.200 TC 30 12 158

デジタル台風データ・検索

IBTrACS Databaseについて

本データベースは、米国NOAAが公開する1842年以降の世界の熱帯低気圧のベストトラックデータアーカイブInternational Best Track Archive for Climate Stewardship (IBTrACS)を、ウェブで閲覧しやすい形式に変換したものです。

最終更新日:2021-10-25